Briefing drone pour Saint-pal-de-mons

Rechercher une autre localisation

Conditions de vol :


Nous sommes le : Jeudi 06 octobre 2022
Il est 09:45 UTC (11:45 LT)

Lever de soleil : 05:20 UTC (07:20 LT)
Coucher de soleil : 17:41 UTC (19:41 LT)

Météo

L'essentiel des conditions de vol

VIGILANCE MÉTÉO FRANCE - Haute-Loire (43)
Pas de vigilances particulieres
CARTES DES FRONTS
METAR de LFMH
LFMH 060930Z AUTO VRB02KT 9999 BKN023 OVC056 16/12 Q1031

Date d'émission: 06/10/2022
Heure d'émission: 09:30 UTC
Vent: Variable 2 KT (4 km/h)
Visibilité horizontale: > 10 km
Plafond :
- Nuages morcelés à 2300ft (701m)
- Couvert à 5600ft (1707m)
Température: 16 °C
Point de rosée: 12 °C
Humidité: 77%
Pression (QNH): 1031 hPa
TAF de LFMH
LFMH 161901Z 1619/1712 CNL

Conditions prévues :

Heure d'émission : Bulletin éffectué le 16 à 19:00 UTC
Prévision : Valide du 16 a 19:00 UTC au 17 a 12:00 UTC
Nuages : à 0ft (0 m)
WEBCAM POUR SAINT-PAL-DE-MONS

Réglementation

Voler en sécurité

CARTES AERONAUTIQUE 1/500.000
CARTE AZBA (Reseau basse altitude)
CARTES VAC (LFMH)
SUP AIP




Chargement des AIP...
NOTAM (SAINT-PAL-DE-MONS + Terrain à proximité / FIR )




Chargement des NOTAMS...
CONTACT PREFECTURE 43


Avertissement : Les données mises à disposition sont indicatives. Oxygène Drone ne pourra être tenu responsable de dégâts causés aux biens et aux personnes.